createdAt,value
2023-01-21T00:02:13.719Z,0.02
2023-01-21T00:04:40.043Z,-0.03
2023-01-21T00:07:06.337Z,0.02
2023-01-21T00:09:32.625Z,0.05
2023-01-21T00:11:58.873Z,0.03
2023-01-21T00:14:25.121Z,-0.03
2023-01-21T00:16:51.420Z,-0.08
2023-01-21T00:19:17.689Z,-0.11
2023-01-21T00:21:43.959Z,-0.01
2023-01-21T00:24:10.209Z,0.01
2023-01-21T00:26:36.465Z,0.09
2023-01-21T00:29:02.745Z,0.12
2023-01-21T00:31:29.132Z,0.18
2023-01-21T00:33:55.441Z,0.24
2023-01-21T00:36:21.694Z,0.21
2023-01-21T00:38:47.965Z,0.23
2023-01-21T00:41:14.236Z,0.21
2023-01-21T00:43:40.493Z,0.21
2023-01-21T00:46:06.786Z,0.26
2023-01-21T00:48:33.062Z,0.25
2023-01-21T00:50:59.414Z,0.31
2023-01-21T00:53:25.788Z,0.35
2023-01-21T00:55:52.058Z,0.33
2023-01-21T00:58:18.553Z,0.33
2023-01-21T01:00:45.015Z,0.35
2023-01-21T01:03:11.264Z,0.33
2023-01-21T01:05:37.570Z,0.30
2023-01-21T01:08:03.825Z,0.33
2023-01-21T01:10:30.088Z,0.32
2023-01-21T01:12:56.388Z,0.35
2023-01-21T01:15:22.672Z,0.35
2023-01-21T01:17:48.940Z,0.35
2023-01-21T01:20:15.481Z,0.35
2023-01-21T01:22:41.915Z,0.35
2023-01-21T01:25:08.188Z,0.31
2023-01-21T01:27:34.464Z,0.23
2023-01-21T01:30:00.784Z,0.25
2023-01-21T01:32:27.067Z,0.22
2023-01-21T01:34:53.344Z,0.22
2023-01-21T01:37:19.612Z,0.22
2023-01-21T01:39:45.889Z,0.25
2023-01-21T01:42:12.168Z,0.34
2023-01-21T01:44:38.420Z,0.28
2023-01-21T01:47:04.681Z,0.19
2023-01-21T01:49:30.922Z,0.19
2023-01-21T01:51:57.192Z,0.13
2023-01-21T01:54:23.459Z,0.12
2023-01-21T01:56:49.731Z,0.14
2023-01-21T01:59:15.977Z,0.26
2023-01-21T02:01:42.301Z,0.29
2023-01-21T02:04:08.593Z,0.31
2023-01-21T02:06:34.880Z,0.23
2023-01-21T02:09:01.160Z,0.23
2023-01-21T02:11:27.453Z,0.18
2023-01-21T02:13:53.781Z,0.21
2023-01-21T02:16:20.091Z,0.13
2023-01-21T02:18:46.347Z,0.04
2023-01-21T02:21:12.641Z,0.01
2023-01-21T02:23:38.906Z,-0.18
2023-01-21T02:26:05.175Z,-0.23
2023-01-21T02:28:31.478Z,-0.22
2023-01-21T02:30:57.896Z,-0.21
2023-01-21T02:33:24.265Z,-0.21
2023-01-21T02:35:50.524Z,-0.21
2023-01-21T02:38:16.811Z,-0.22
2023-01-21T02:40:43.130Z,-0.34
2023-01-21T02:43:09.404Z,-0.45
2023-01-21T02:45:35.796Z,-0.41
2023-01-21T02:48:02.072Z,-0.47
2023-01-21T02:50:28.329Z,-0.44
2023-01-21T02:52:54.588Z,-0.42
2023-01-21T02:55:20.833Z,-0.42
2023-01-21T02:57:47.121Z,-0.40
2023-01-21T03:00:13.381Z,-0.38
2023-01-21T03:02:39.647Z,-0.31
2023-01-21T03:05:05.911Z,-0.31
2023-01-21T03:07:32.168Z,-0.28
2023-01-21T03:09:58.439Z,-0.29
2023-01-21T03:12:24.707Z,-0.43
2023-01-21T03:14:50.949Z,-0.43
2023-01-21T03:17:17.207Z,-0.53
2023-01-21T03:19:43.468Z,-0.61
2023-01-21T03:22:09.781Z,-0.46
2023-01-21T03:24:36.079Z,-0.54
2023-01-21T03:27:02.344Z,-0.67
2023-01-21T03:29:28.639Z,-0.79
2023-01-21T03:31:55.008Z,-0.86
2023-01-21T03:34:21.262Z,-0.94
2023-01-21T03:36:47.555Z,-1.03
2023-01-21T03:39:13.804Z,-1.13
2023-01-21T03:41:40.072Z,-1.08
2023-01-21T03:44:06.382Z,-1.11
2023-01-21T03:46:32.648Z,-1.17
2023-01-21T03:48:58.957Z,-1.24
2023-01-21T03:51:25.230Z,-1.32
2023-01-21T03:53:51.511Z,-1.43
2023-01-21T03:56:17.784Z,-1.39
2023-01-21T03:58:44.044Z,-1.36
2023-01-21T04:01:10.325Z,-1.48
2023-01-21T04:03:36.596Z,-1.46
2023-01-21T04:06:02.855Z,-1.47
2023-01-21T04:08:29.137Z,-1.56
2023-01-21T04:10:55.379Z,-1.47
2023-01-21T04:13:21.674Z,-1.43
2023-01-21T04:15:47.936Z,-1.49
2023-01-21T04:18:14.200Z,-1.49
2023-01-21T04:20:40.457Z,-1.58
2023-01-21T04:23:06.722Z,-1.53
2023-01-21T04:25:33.008Z,-1.60
2023-01-21T04:27:59.288Z,-1.74
2023-01-21T04:30:25.772Z,-1.76
2023-01-21T04:32:52.027Z,-1.74
2023-01-21T04:35:18.276Z,-1.83
2023-01-21T04:37:44.554Z,-1.95
2023-01-21T04:40:10.808Z,-1.89
2023-01-21T04:42:37.055Z,-1.86
2023-01-21T04:45:03.338Z,-1.97
2023-01-21T04:47:29.605Z,-1.90
2023-01-21T04:49:55.855Z,-1.92
2023-01-21T04:52:22.124Z,-2.00
2023-01-21T04:54:48.407Z,-2.02
2023-01-21T04:57:14.688Z,-2.03
2023-01-21T04:59:41.085Z,-1.99
2023-01-21T05:02:07.364Z,-1.85
2023-01-21T05:04:33.636Z,-1.90
2023-01-21T05:06:59.893Z,-1.78
2023-01-21T05:09:26.196Z,-1.82
2023-01-21T05:11:52.472Z,-1.74
2023-01-21T05:14:18.737Z,-1.73
2023-01-21T05:16:45.041Z,-1.66
2023-01-21T05:19:11.742Z,-1.75
2023-01-21T05:21:38.004Z,-1.84
2023-01-21T05:24:04.333Z,-1.71
2023-01-21T05:26:30.620Z,-1.81
2023-01-21T05:28:56.870Z,-1.80
2023-01-21T05:31:23.331Z,-1.81
2023-01-21T05:33:49.686Z,-1.86
2023-01-21T05:36:15.975Z,-1.83
2023-01-21T05:38:42.312Z,-1.92
2023-01-21T05:41:08.557Z,-1.90
2023-01-21T05:43:34.934Z,-1.95
2023-01-21T05:46:01.447Z,-1.80
2023-01-21T05:48:27.749Z,-1.73
2023-01-21T05:50:54.616Z,-1.71
2023-01-21T05:53:21.628Z,-1.70
2023-01-21T05:55:47.896Z,-1.84
2023-01-21T05:58:14.148Z,-1.87
2023-01-21T06:00:40.448Z,-1.76
2023-01-21T06:03:06.733Z,-1.76
2023-01-21T06:05:33.007Z,-1.84
2023-01-21T06:07:59.317Z,-1.80
2023-01-21T06:10:25.574Z,-1.92
2023-01-21T06:12:51.933Z,-2.02
2023-01-21T06:15:18.199Z,-1.90
2023-01-21T06:17:46.453Z,-1.95
2023-01-21T06:20:13.578Z,-2.06
2023-01-21T06:22:39.884Z,-2.08
2023-01-21T06:25:06.148Z,-2.31
2023-01-21T06:27:32.421Z,-2.35
2023-01-21T06:29:58.666Z,-2.36
2023-01-21T06:32:24.939Z,-2.44
2023-01-21T06:34:51.216Z,-2.40
2023-01-21T06:37:17.473Z,-2.38
2023-01-21T06:39:43.754Z,-2.29
2023-01-21T06:42:10.017Z,-2.41
2023-01-21T06:44:36.289Z,-2.34
2023-01-21T06:47:02.597Z,-2.28
2023-01-21T06:49:28.924Z,-2.21
2023-01-21T06:51:55.178Z,-2.20
2023-01-21T06:54:21.440Z,-2.12
2023-01-21T06:56:47.700Z,-2.16
2023-01-21T06:59:13.957Z,-2.14
2023-01-21T07:01:40.259Z,-2.02
2023-01-21T07:04:06.564Z,-1.99
2023-01-21T07:06:32.854Z,-2.06
2023-01-21T07:08:59.118Z,-2.04
2023-01-21T07:11:25.362Z,-2.19
2023-01-21T07:13:51.625Z,-2.04
2023-01-21T07:16:17.913Z,-2.21
2023-01-21T07:18:44.177Z,-2.23
2023-01-21T07:21:10.417Z,-2.37
2023-01-21T07:23:36.679Z,-2.36
2023-01-21T07:26:02.952Z,-2.30
2023-01-21T07:28:29.195Z,-2.28
2023-01-21T07:30:55.535Z,-2.27
2023-01-21T07:33:21.888Z,-2.39
2023-01-21T07:35:48.137Z,-2.37
2023-01-21T07:38:14.400Z,-2.42
2023-01-21T07:40:40.650Z,-2.37
2023-01-21T07:43:06.898Z,-2.40
2023-01-21T07:45:33.143Z,-2.56
2023-01-21T07:47:59.419Z,-2.55
2023-01-21T07:50:25.745Z,-2.62
2023-01-21T07:52:51.998Z,-2.75
2023-01-21T07:55:18.523Z,-2.65
2023-01-21T07:57:44.971Z,-2.73
2023-01-21T08:00:11.215Z,-2.88
2023-01-21T08:02:37.533Z,-2.76
2023-01-21T08:05:03.853Z,-2.71
2023-01-21T08:07:30.097Z,-2.74
2023-01-21T08:09:56.364Z,-2.80
2023-01-21T08:12:22.621Z,-2.59
2023-01-21T08:14:48.877Z,-2.69
2023-01-21T08:17:15.113Z,-2.75
2023-01-21T08:19:41.372Z,-2.80
2023-01-21T08:22:07.611Z,-2.79
2023-01-21T08:24:33.877Z,-2.81
2023-01-21T08:27:00.171Z,-2.97
2023-01-21T08:29:26.432Z,-2.89
2023-01-21T08:31:52.722Z,-2.74
2023-01-21T08:34:18.965Z,-2.77
2023-01-21T08:36:45.232Z,-2.98
2023-01-21T08:39:11.479Z,-2.77
2023-01-21T08:41:37.863Z,-2.76
2023-01-21T08:44:04.126Z,-2.77
2023-01-21T08:46:30.385Z,-2.72
2023-01-21T08:48:56.664Z,-2.71
2023-01-21T08:51:23.013Z,-2.74
2023-01-21T08:53:49.257Z,-2.72
2023-01-21T08:56:15.500Z,-2.54
2023-01-21T08:58:41.768Z,-2.55
2023-01-21T09:01:08.081Z,-2.51
2023-01-21T09:03:34.380Z,-2.44
2023-01-21T09:06:00.641Z,-2.43
2023-01-21T09:08:26.931Z,-2.49
2023-01-21T09:10:53.199Z,-2.42
2023-01-21T09:13:19.476Z,-2.43
2023-01-21T09:15:45.749Z,-2.48
2023-01-21T09:18:11.999Z,-2.38
2023-01-21T09:20:38.266Z,-2.31
2023-01-21T09:23:04.534Z,-2.24
2023-01-21T09:25:30.798Z,-2.23
2023-01-21T09:27:57.041Z,-2.29
2023-01-21T09:30:23.304Z,-2.19
2023-01-21T09:32:49.566Z,-2.21
2023-01-21T09:35:16.150Z,-2.18
2023-01-21T09:37:42.535Z,-2.07
2023-01-21T09:40:08.808Z,-2.06
2023-01-21T09:42:35.082Z,-2.15
2023-01-21T09:45:01.354Z,-2.07
2023-01-21T09:47:27.609Z,-2.23
2023-01-21T09:49:53.858Z,-2.26
2023-01-21T09:52:20.103Z,-2.14
2023-01-21T09:54:46.458Z,-2.28
2023-01-21T09:57:12.757Z,-2.15
2023-01-21T09:59:39.032Z,-2.13
2023-01-21T10:02:05.324Z,-2.05
2023-01-21T10:04:31.610Z,-2.09
2023-01-21T10:06:57.849Z,-1.89
2023-01-21T10:09:24.111Z,-2.04
2023-01-21T10:11:50.364Z,-1.87
2023-01-21T10:14:16.629Z,-1.83
2023-01-21T10:16:42.909Z,-1.89
2023-01-21T10:19:09.229Z,-1.80
2023-01-21T10:21:35.485Z,-1.72
2023-01-21T10:24:01.751Z,-1.65
2023-01-21T10:26:28.012Z,-1.62
2023-01-21T10:28:54.268Z,-1.58
2023-01-21T10:31:20.573Z,-1.56
2023-01-21T10:33:46.915Z,-1.63
2023-01-21T10:36:13.168Z,-1.58
2023-01-21T10:38:39.415Z,-1.39
2023-01-21T10:41:05.684Z,-1.47
2023-01-21T10:43:31.956Z,-1.41
2023-01-21T10:45:58.216Z,-1.44
2023-01-21T10:48:24.495Z,-1.32
2023-01-21T10:50:50.816Z,-1.36
2023-01-21T10:53:17.125Z,-1.16
2023-01-21T10:55:43.406Z,-1.26
2023-01-21T10:58:09.672Z,-1.06
2023-01-21T11:00:35.951Z,-1.08
2023-01-21T11:03:02.205Z,-1.15
2023-01-21T11:05:28.455Z,-1.11
2023-01-21T11:07:54.813Z,-1.08
2023-01-21T11:10:21.091Z,-0.97
2023-01-21T11:12:47.351Z,-0.95
2023-01-21T11:15:13.623Z,-0.74
2023-01-21T11:17:39.879Z,-0.70
2023-01-21T11:20:06.146Z,-0.75
2023-01-21T11:22:32.402Z,-0.68
2023-01-21T11:24:58.664Z,-0.64
2023-01-21T11:27:24.948Z,-0.57
2023-01-21T11:29:51.206Z,-0.53
2023-01-21T11:32:17.653Z,-0.42
2023-01-21T11:34:43.988Z,-0.43
2023-01-21T11:37:10.247Z,-0.45
2023-01-21T11:39:36.531Z,-0.38
2023-01-21T11:42:02.785Z,-0.33
2023-01-21T11:44:29.034Z,-0.42
2023-01-21T11:46:55.311Z,-0.37
2023-01-21T11:49:21.588Z,-0.24
2023-01-21T11:51:47.861Z,-0.23
2023-01-21T11:54:14.131Z,-0.16
2023-01-21T11:56:40.407Z,-0.17
2023-01-21T11:59:06.696Z,-0.10
2023-01-21T12:01:32.960Z,-0.11
2023-01-21T12:03:59.329Z,-0.10
2023-01-21T12:06:25.648Z,-0.10
2023-01-21T12:08:51.897Z,-0.10
2023-01-21T12:11:18.173Z,0.07
2023-01-21T12:13:44.455Z,0.10
2023-01-21T12:16:10.782Z,-0.06
2023-01-21T12:18:37.101Z,-0.20
2023-01-21T12:21:03.368Z,0.11
2023-01-21T12:23:29.613Z,0.14
2023-01-21T12:25:55.871Z,0.24
2023-01-21T12:28:22.121Z,0.06
2023-01-21T12:30:48.409Z,0.23
2023-01-21T12:33:14.681Z,0.22
2023-01-21T12:35:40.963Z,0.31
2023-01-21T12:38:07.237Z,0.44
2023-01-21T12:40:34.637Z,0.49
2023-01-21T12:43:01.031Z,0.47
2023-01-21T12:45:27.283Z,0.61
2023-01-21T12:47:53.542Z,0.68
2023-01-21T12:50:19.841Z,0.78
2023-01-21T12:52:46.106Z,0.78
2023-01-21T12:55:12.377Z,0.76
2023-01-21T12:57:38.637Z,0.93
2023-01-21T13:00:04.908Z,0.77
2023-01-21T13:02:31.159Z,0.83
2023-01-21T13:04:57.401Z,1.02
2023-01-21T13:07:23.677Z,1.10
2023-01-21T13:09:49.921Z,1.10
2023-01-21T13:12:16.173Z,0.99
2023-01-21T13:14:42.430Z,1.11
2023-01-21T13:17:08.680Z,1.08
2023-01-21T13:19:34.941Z,1.20
2023-01-21T13:22:01.219Z,0.97
2023-01-21T13:24:27.475Z,1.06
2023-01-21T13:26:53.732Z,1.09
2023-01-21T13:29:20.004Z,1.07
2023-01-21T13:31:46.344Z,1.05
2023-01-21T13:34:12.631Z,1.15
2023-01-21T13:36:38.893Z,1.02
2023-01-21T13:39:05.149Z,1.17
2023-01-21T13:41:31.394Z,1.18
2023-01-21T13:43:57.643Z,1.24
2023-01-21T13:46:23.907Z,1.21
2023-01-21T13:48:50.144Z,1.07
2023-01-21T13:51:16.411Z,1.17
2023-01-21T13:53:42.725Z,1.02
2023-01-21T13:56:08.984Z,1.01
2023-01-21T13:58:35.252Z,1.15
2023-01-21T14:01:01.536Z,1.20
2023-01-21T14:03:27.834Z,1.28
2023-01-21T14:05:54.108Z,1.22
2023-01-21T14:08:20.389Z,1.27
2023-01-21T14:10:46.664Z,1.36
2023-01-21T14:13:12.934Z,1.32
2023-01-21T14:15:39.216Z,1.40
2023-01-21T14:18:05.487Z,1.24
2023-01-21T14:20:31.745Z,1.17
2023-01-21T14:22:58.029Z,1.38
2023-01-21T14:25:24.292Z,1.28
2023-01-21T14:27:50.553Z,1.27
2023-01-21T14:30:17.108Z,1.32
2023-01-21T14:32:43.612Z,1.43
2023-01-21T14:35:09.873Z,1.34
2023-01-21T14:37:36.122Z,1.44
2023-01-21T14:40:02.372Z,1.06
2023-01-21T14:42:28.621Z,1.32
2023-01-21T14:44:54.877Z,1.22
2023-01-21T14:47:21.124Z,1.01
2023-01-21T14:49:47.369Z,1.25
2023-01-21T14:52:13.657Z,1.10
2023-01-21T14:54:39.917Z,1.11
2023-01-21T14:57:18.218Z,1.23
2023-01-21T14:59:45.127Z,1.22
2023-01-21T15:02:11.400Z,1.24
2023-01-21T15:04:37.706Z,1.27
2023-01-21T15:07:03.989Z,1.18
2023-01-21T15:09:30.275Z,1.18
2023-01-21T15:11:56.546Z,1.20
2023-01-21T15:14:23.033Z,1.24
2023-01-21T15:16:49.364Z,1.11
2023-01-21T15:19:15.653Z,1.01
2023-01-21T15:21:41.917Z,0.94
2023-01-21T15:24:08.188Z,1.06
2023-01-21T15:26:34.467Z,1.02
2023-01-21T15:29:00.729Z,0.97
2023-01-21T15:31:27.068Z,1.00
2023-01-21T15:33:53.367Z,1.00
2023-01-21T15:36:19.619Z,0.86
2023-01-21T15:38:45.870Z,0.79
2023-01-21T15:41:12.129Z,0.77
2023-01-21T15:43:38.409Z,0.75
2023-01-21T15:46:04.768Z,0.94
2023-01-21T15:48:41.267Z,0.86
2023-01-21T15:51:08.618Z,0.81
2023-01-21T15:53:34.897Z,0.69
2023-01-21T15:56:03.462Z,0.54
2023-01-21T15:58:29.728Z,0.53
2023-01-21T16:00:56.020Z,0.46
2023-01-21T16:03:22.336Z,0.54
2023-01-21T16:05:48.680Z,0.52
2023-01-21T16:08:14.929Z,0.53
2023-01-21T16:10:41.210Z,0.58
2023-01-21T16:13:07.477Z,0.44
2023-01-21T16:15:33.831Z,0.37
2023-01-21T16:18:00.265Z,0.51
2023-01-21T16:20:26.525Z,0.36
2023-01-21T16:22:52.804Z,0.30
2023-01-21T16:25:19.575Z,0.24
2023-01-21T16:27:45.934Z,0.19
2023-01-21T16:30:12.180Z,0.23
2023-01-21T16:32:38.441Z,0.26
2023-01-21T16:35:04.709Z,0.28
2023-01-21T16:37:30.960Z,0.21
2023-01-21T16:39:57.208Z,0.19
2023-01-21T16:42:23.472Z,0.21
2023-01-21T16:44:49.734Z,0.20
2023-01-21T16:47:15.990Z,0.11
2023-01-21T16:49:43.466Z,0.18
2023-01-21T16:52:09.778Z,0.22
2023-01-21T16:54:36.054Z,0.20
2023-01-21T16:57:02.313Z,0.21
2023-01-21T16:59:28.595Z,0.28
2023-01-21T17:01:54.938Z,0.20
2023-01-21T17:04:21.234Z,0.27
2023-01-21T17:06:47.506Z,0.23
2023-01-21T17:09:13.776Z,0.27
2023-01-21T17:11:40.032Z,0.13
2023-01-21T17:14:06.290Z,-0.02
2023-01-21T17:16:32.546Z,-0.03
2023-01-21T17:18:58.811Z,-0.10
2023-01-21T17:21:25.064Z,-0.07
2023-01-21T17:23:51.331Z,-0.06
2023-01-21T17:26:17.606Z,-0.03
2023-01-21T17:28:44.008Z,-0.14
2023-01-21T17:31:10.408Z,-0.37
2023-01-21T17:33:36.751Z,-0.24
2023-01-21T17:36:03.088Z,-0.34
2023-01-21T17:38:29.450Z,-0.41
2023-01-21T17:40:55.827Z,-0.29
2023-01-21T17:43:22.162Z,-0.17
2023-01-21T17:45:48.469Z,-0.22
2023-01-21T17:48:14.958Z,-0.23
2023-01-21T17:50:41.328Z,-0.18
2023-01-21T17:53:07.625Z,-0.17
2023-01-21T17:55:33.921Z,-0.35
2023-01-21T17:58:00.263Z,-0.29
2023-01-21T18:00:26.632Z,-0.31
2023-01-21T18:02:53.082Z,-0.44
2023-01-21T18:05:19.665Z,-0.38
2023-01-21T18:07:46.008Z,-0.41
2023-01-21T18:10:12.280Z,-0.39
2023-01-21T18:12:38.553Z,-0.28
2023-01-21T18:15:04.885Z,-0.36
2023-01-21T18:17:31.192Z,-0.28
2023-01-21T18:19:58.098Z,-0.29
2023-01-21T18:22:24.575Z,-0.20
2023-01-21T18:24:50.930Z,-0.31
2023-01-21T18:27:17.208Z,-0.30
2023-01-21T18:29:43.473Z,-0.24
2023-01-21T18:32:09.863Z,-0.25
2023-01-21T18:34:36.160Z,-0.23
2023-01-21T18:37:02.409Z,-0.21
2023-01-21T18:39:28.685Z,-0.10
2023-01-21T18:41:54.958Z,-0.18
2023-01-21T18:44:21.230Z,-0.22
2023-01-21T18:46:47.513Z,-0.35
2023-01-21T18:49:13.796Z,-0.21
2023-01-21T18:51:40.079Z,-0.25
2023-01-21T18:54:06.348Z,-0.45
2023-01-21T18:56:32.625Z,-0.34
2023-01-21T18:58:58.882Z,-0.32
2023-01-21T19:01:25.204Z,-0.13
2023-01-21T19:03:51.502Z,-0.15
2023-01-21T19:06:17.761Z,-0.22
2023-01-21T19:08:44.026Z,-0.32
2023-01-21T19:11:10.280Z,-0.08
2023-01-21T19:13:36.551Z,-0.21
2023-01-21T19:16:02.850Z,-0.10
2023-01-21T19:18:29.224Z,-0.04
2023-01-21T19:20:55.515Z,-0.18
2023-01-21T19:23:21.785Z,-0.19
2023-01-21T19:25:48.035Z,-0.16
2023-01-21T19:28:14.297Z,-0.30
2023-01-21T19:30:40.564Z,-0.44
2023-01-21T19:33:06.831Z,-0.29
2023-01-21T19:35:33.113Z,-0.16
2023-01-21T19:37:59.376Z,-0.23
2023-01-21T19:40:25.645Z,-0.21
2023-01-21T19:42:51.894Z,-0.14
2023-01-21T19:45:18.164Z,-0.02
2023-01-21T19:47:44.422Z,-0.10
2023-01-21T19:50:10.678Z,-0.16
2023-01-21T19:52:36.948Z,-0.08
2023-01-21T19:55:03.410Z,0.01
2023-01-21T19:57:29.721Z,-0.09
2023-01-21T19:59:55.972Z,0.00
2023-01-21T20:02:22.396Z,0.08
2023-01-21T20:04:48.763Z,0.04
2023-01-21T20:07:15.060Z,0.10
2023-01-21T20:09:41.347Z,0.12
2023-01-21T20:12:07.612Z,0.12
2023-01-21T20:14:33.890Z,-0.07
2023-01-21T20:17:00.140Z,-0.05
2023-01-21T20:19:26.382Z,-0.06
2023-01-21T20:22:02.101Z,-0.08
2023-01-21T20:24:29.076Z,-0.08
2023-01-21T20:26:55.373Z,-0.04
2023-01-21T20:29:21.644Z,0.01
2023-01-21T20:31:47.972Z,-0.23
2023-01-21T20:34:14.236Z,-0.16
2023-01-21T20:36:40.477Z,-0.16
2023-01-21T20:39:06.724Z,-0.01
2023-01-21T20:41:32.967Z,-0.12
2023-01-21T20:43:59.242Z,-0.02
2023-01-21T20:46:25.500Z,-0.15
2023-01-21T20:48:51.869Z,-0.13
2023-01-21T20:51:18.218Z,-0.19
2023-01-21T20:53:44.519Z,-0.17
2023-01-21T20:56:10.799Z,-0.19
2023-01-21T20:58:37.060Z,-0.05
2023-01-21T21:01:03.376Z,-0.07
2023-01-21T21:03:29.642Z,0.08
2023-01-21T21:05:55.906Z,0.14
2023-01-21T21:08:22.173Z,0.11
2023-01-21T21:10:48.446Z,0.03
2023-01-21T21:13:14.722Z,0.05
2023-01-21T21:15:41.009Z,0.07
2023-01-21T21:18:07.280Z,0.17
2023-01-21T21:20:33.536Z,0.07
2023-01-21T21:22:59.808Z,-0.01
2023-01-21T21:25:26.075Z,0.03
2023-01-21T21:27:52.357Z,0.07
2023-01-21T21:30:18.609Z,0.15
2023-01-21T21:32:44.862Z,0.09
2023-01-21T21:35:11.118Z,0.24
2023-01-21T21:37:37.370Z,0.18
2023-01-21T21:40:03.644Z,0.02
2023-01-21T21:42:29.899Z,0.10
2023-01-21T21:44:56.161Z,-0.03
2023-01-21T21:47:22.409Z,0.04
2023-01-21T21:49:48.675Z,0.10
2023-01-21T21:52:14.937Z,0.15
2023-01-21T21:54:41.189Z,0.02
2023-01-21T21:57:07.428Z,0.06
2023-01-21T21:59:33.691Z,-0.13
2023-01-21T22:01:59.974Z,-0.09
2023-01-21T22:04:26.275Z,-0.05
2023-01-21T22:06:52.545Z,0.08
2023-01-21T22:09:18.792Z,0.02
2023-01-21T22:11:45.065Z,-0.08
2023-01-21T22:14:11.337Z,-0.38
2023-01-21T22:16:37.672Z,-0.10
2023-01-21T22:19:03.972Z,-0.18
2023-01-21T22:21:30.234Z,-0.22
2023-01-21T22:23:56.504Z,0.00
2023-01-21T22:26:22.769Z,-0.02
2023-01-21T22:28:49.012Z,0.05
2023-01-21T22:31:15.416Z,-0.06
2023-01-21T22:33:41.728Z,-0.21
2023-01-21T22:36:07.995Z,-0.10
2023-01-21T22:38:34.253Z,-0.38
2023-01-21T22:41:00.519Z,-0.11
2023-01-21T22:43:26.800Z,-0.17
2023-01-21T22:45:53.100Z,-0.07
2023-01-21T22:48:19.436Z,-0.02
2023-01-21T22:50:45.726Z,0.01
2023-01-21T22:53:12.054Z,-0.14
2023-01-21T22:55:38.327Z,-0.10
2023-01-21T22:58:04.591Z,-0.24
2023-01-21T23:00:30.886Z,-0.19
2023-01-21T23:02:57.164Z,-0.21
2023-01-21T23:05:23.498Z,-0.11
2023-01-21T23:07:49.773Z,-0.30
2023-01-21T23:10:16.366Z,-0.25
2023-01-21T23:12:42.845Z,-0.32
2023-01-21T23:15:09.100Z,-0.28
2023-01-21T23:17:35.387Z,-0.46
2023-01-21T23:20:01.683Z,-0.28
2023-01-21T23:22:27.972Z,-0.30
2023-01-21T23:24:54.252Z,-0.22
2023-01-21T23:27:20.504Z,-0.22
2023-01-21T23:29:46.760Z,-0.32
2023-01-21T23:32:13.028Z,-0.29
2023-01-21T23:34:39.276Z,-0.31
2023-01-21T23:37:05.539Z,-0.39
2023-01-21T23:39:31.812Z,-0.38
2023-01-21T23:41:58.079Z,-0.30
2023-01-21T23:44:24.347Z,-0.53
2023-01-21T23:46:50.603Z,-0.31
2023-01-21T23:49:18.624Z,-0.37
2023-01-21T23:51:44.985Z,-0.35
2023-01-21T23:54:11.274Z,-0.37
2023-01-21T23:56:37.543Z,-0.40
2023-01-21T23:59:03.829Z,-0.42
